Time;durP1;ratioP1;P1;durP2;ratioP2;P2;SDS_P1;SDS_P2;PMS_P1;PMS_P2;Temp;Humidity;BMP_temperature;BMP_pressure;BME280_temperature;BME280_humidity;BME280_pressure;Samples;Min_cycle;Max_cycle;Signal;HPM_P1;HPM_P2
2022/03/29 00:01:45;;;;;;;8.52;4.82;;;18.80;70.30;;;;;;7900441;28;20536;-50
2022/03/29 00:05:32;;;;;;;6.55;4.43;;;18.90;70.50;;;;;;7899714;28;20201;-50
2022/03/29 00:09:17;;;;;;;9.20;5.18;;;18.80;70.40;;;;;;7899943;28;20254;-50
2022/03/29 00:13:03;;;;;;;7.45;4.50;;;18.80;70.30;;;;;;7900120;28;20283;-49
2022/03/29 00:16:48;;;;;;;6.75;4.70;;;18.80;70.40;;;;;;7900288;28;20173;-50
2022/03/29 00:20:34;;;;;;;8.13;4.82;;;18.80;70.50;;;;;;7899808;28;20184;-53
2022/03/29 00:24:19;;;;;;;7.85;4.53;;;18.80;70.50;;;;;;7899848;28;20218;-50
2022/03/29 00:28:05;;;;;;;6.90;4.43;;;18.80;70.50;;;;;;7899937;28;20169;-52
2022/03/29 00:31:50;;;;;;;7.95;4.32;;;18.70;70.40;;;;;;7903265;28;20208;-52
2022/03/29 00:35:36;;;;;;;9.05;4.90;;;18.70;70.40;;;;;;7905922;28;20279;-52
2022/03/29 00:39:21;;;;;;;5.85;4.25;;;18.70;70.50;;;;;;7905640;28;20234;-52
2022/03/29 00:43:08;;;;;;;6.32;4.30;;;18.70;70.50;;;;;;7905507;28;20204;-50
2022/03/29 00:46:55;;;;;;;7.90;4.35;;;18.70;70.50;;;;;;7905329;28;20205;-51
2022/03/29 00:50:41;;;;;;;9.55;4.55;;;18.70;70.50;;;;;;7905041;28;20208;-51
2022/03/29 00:54:30;;;;;;;7.30;3.97;;;18.70;70.50;;;;;;7905204;28;20218;-53
2022/03/29 00:58:17;;;;;;;7.95;4.40;;;18.70;70.60;;;;;;7905309;28;20205;-53
2022/03/29 01:02:03;;;;;;;9.57;4.70;;;18.60;70.50;;;;;;7904863;28;20169;-52
2022/03/29 01:05:48;;;;;;;8.13;4.22;;;18.60;70.50;;;;;;7904955;28;20204;-52
2022/03/29 01:09:34;;;;;;;5.80;4.00;;;18.60;70.50;;;;;;7904696;28;20639;-51
2022/03/29 01:13:20;;;;;;;7.78;4.32;;;18.60;70.50;;;;;;7904914;28;20197;-50
2022/03/29 01:21:15;;;;;;;5.47;4.00;;;18.60;70.50;;;;;;7904490;28;20177;-50
2022/03/29 01:25:01;;;;;;;6.82;3.50;;;18.60;70.50;;;;;;7904428;28;20555;-50
2022/03/29 01:28:46;;;;;;;5.40;3.47;;;18.60;70.50;;;;;;7904559;28;20169;-50
2022/03/29 01:32:35;;;;;;;5.03;3.58;;;18.60;70.60;;;;;;7904089;28;20229;-52
2022/03/29 01:36:21;;;;;;;8.43;3.55;;;18.60;70.60;;;;;;7904187;28;20203;-50
2022/03/29 01:40:12;;;;;;;7.32;3.53;;;18.50;71.40;;;;;;7903705;28;20173;-52
2022/03/29 01:43:59;;;;;;;6.50;3.92;;;18.50;70.50;;;;;;7903661;28;20210;-51
2022/03/29 01:47:45;;;;;;;4.80;3.25;;;18.50;70.60;;;;;;7903650;28;20577;-51
2022/03/29 01:51:31;;;;;;;8.25;3.83;;;18.50;70.60;;;;;;7903215;28;20189;-51
2022/03/29 01:55:18;;;;;;;5.75;4.07;;;18.50;70.60;;;;;;7903507;28;20207;-51
2022/03/29 01:59:08;;;;;;;5.85;3.58;;;18.50;70.60;;;;;;7903203;28;20168;-50
2022/03/29 02:02:55;;;;;;;4.20;2.95;;;18.50;70.50;;;;;;7903164;28;20197;-50
2022/03/29 02:06:41;;;;;;;7.15;3.63;;;18.40;70.50;;;;;;7903295;28;20212;-52
2022/03/29 02:10:27;;;;;;;5.03;3.17;;;18.50;70.60;;;;;;7902710;28;20181;-52
2022/03/29 02:14:13;;;;;;;6.00;3.67;;;18.40;70.40;;;;;;7902806;28;20193;-51
2022/03/29 02:17:58;;;;;;;4.60;3.55;;;18.40;70.50;;;;;;7902783;28;20188;-50
2022/03/29 02:21:44;;;;;;;5.32;3.47;;;18.50;70.60;;;;;;7902476;28;20665;-50
2022/03/29 02:25:30;;;;;;;5.28;3.45;;;18.40;70.50;;;;;;7902453;28;20250;-53
2022/03/29 02:29:15;;;;;;;5.85;3.92;;;18.40;70.50;;;;;;7902186;28;20183;-52
2022/03/29 02:33:02;;;;;;;6.72;3.80;;;18.40;70.50;;;;;;7902298;28;20193;-52
2022/03/29 02:36:48;;;;;;;4.43;3.30;;;18.40;70.50;;;;;;7902336;28;20184;-52
2022/03/29 02:40:34;;;;;;;5.05;3.78;;;18.40;70.50;;;;;;7901791;28;20223;-52
2022/03/29 02:44:19;;;;;;;6.07;3.60;;;18.40;70.50;;;;;;7901858;28;20204;-50
2022/03/29 02:48:05;;;;;;;4.93;3.67;;;18.40;70.50;;;;;;7902027;28;20211;-50
2022/03/29 02:51:52;;;;;;;6.75;4.00;;;18.40;70.50;;;;;;7901533;28;20215;-50
2022/03/29 02:55:38;;;;;;;4.25;3.33;;;18.30;70.40;;;;;;7901081;28;20188;-51
2022/03/29 02:59:23;;;;;;;6.45;3.33;;;18.30;70.50;;;;;;7901408;28;20177;-52
2022/03/29 03:03:09;;;;;;;8.23;3.50;;;18.30;70.50;;;;;;7901600;28;20272;-51
2022/03/29 03:06:54;;;;;;;5.88;3.58;;;18.30;70.50;;;;;;7902173;28;20204;-55
2022/03/29 03:10:40;;;;;;;4.85;3.70;;;18.30;70.40;;;;;;7901220;28;20176;-55
2022/03/29 03:14:25;;;;;;;9.70;3.88;;;18.30;70.50;;;;;;7901240;28;20196;-53
2022/03/29 03:18:12;;;;;;;7.03;3.78;;;18.30;70.50;;;;;;7901276;28;20172;-52
2022/03/29 03:21:58;;;;;;;5.82;3.67;;;18.30;70.50;;;;;;7900815;28;20172;-52
2022/03/29 03:25:43;;;;;;;5.47;3.38;;;18.30;70.50;;;;;;7901048;28;20243;-52
2022/03/29 03:29:29;;;;;;;6.68;3.70;;;18.20;70.40;;;;;;7900565;28;20218;-53
2022/03/29 03:33:14;;;;;;;5.20;4.10;;;18.30;70.50;;;;;;7900788;28;20237;-52
2022/03/29 03:37:02;;;;;;;4.88;3.65;;;18.20;70.40;;;;;;7900791;28;20187;-53
2022/03/29 03:40:48;;;;;;;4.30;3.53;;;18.30;70.40;;;;;;7900484;28;20176;-52
2022/03/29 03:44:33;;;;;;;5.57;3.50;;;18.30;70.50;;;;;;7900409;28;20201;-53
2022/03/29 03:48:19;;;;;;;5.47;3.42;;;18.30;70.50;;;;;;7900505;28;20184;-52
2022/03/29 03:52:07;;;;;;;4.82;3.75;;;18.30;70.40;;;;;;7900157;28;20184;-53
2022/03/29 03:55:52;;;;;;;4.68;3.50;;;18.30;70.40;;;;;;7900420;28;20207;-53
2022/03/29 03:59:38;;;;;;;7.07;4.00;;;18.30;70.40;;;;;;7900155;28;20208;-53
2022/03/29 04:03:23;;;;;;;6.15;4.38;;;18.40;70.30;;;;;;7900194;28;20205;-53
2022/03/29 04:07:09;;;;;;;5.43;3.80;;;18.40;70.20;;;;;;7927910;28;20204;-52
2022/03/29 04:10:54;;;;;;;7.13;4.00;;;18.40;70.20;;;;;;7936999;28;20211;-52
2022/03/29 04:14:40;;;;;;;7.82;4.32;;;18.50;70.20;;;;;;7937382;28;20215;-53
2022/03/29 04:18:25;;;;;;;7.43;3.83;;;18.50;70.10;;;;;;7937661;28;20164;-52
2022/03/29 04:22:11;;;;;;;5.97;4.03;;;18.60;70.10;;;;;;7930825;28;20187;-53
2022/03/29 04:25:57;;;;;;;11.40;4.43;;;18.60;70.00;;;;;;7936891;28;20214;-55
2022/03/29 04:29:43;;;;;;;8.05;3.92;;;18.60;69.80;;;;;;7936372;28;20536;-52
2022/03/29 04:33:29;;;;;;;7.38;3.85;;;18.70;69.70;;;;;;7936487;28;20215;-53
2022/03/29 04:37:15;;;;;;;9.73;4.18;;;18.70;69.50;;;;;;7936569;28;20188;-53
2022/03/29 04:41:01;;;;;;;14.63;4.10;;;18.70;69.50;;;;;;7941775;27;20179;-53
2022/03/29 04:44:46;;;;;;;10.38;4.15;;;18.80;69.70;;;;;;7964382;27;20290;-55
2022/03/29 04:48:31;;;;;;;11.50;3.85;;;18.80;69.70;;;;;;7968179;27;20241;-54
2022/03/29 04:52:17;;;;;;;12.05;4.40;;;18.80;69.50;;;;;;7941778;27;20191;-52
2022/03/29 04:56:03;;;;;;;10.35;3.95;;;18.90;69.60;;;;;;7935807;28;20274;-54
2022/03/29 04:59:49;;;;;;;13.70;3.55;;;18.90;69.90;;;;;;7935330;28;20187;-54
2022/03/29 05:03:34;;;;;;;5.75;4.10;;;19.00;69.80;;;;;;7935654;28;20222;-54
2022/03/29 05:07:22;;;;;;;12.20;3.95;;;19.00;69.60;;;;;;7909007;28;20204;-54
2022/03/29 05:11:08;;;;;;;11.98;4.28;;;19.10;69.50;;;;;;7902899;28;20530;-52
2022/03/29 05:14:54;;;;;;;9.82;4.30;;;19.10;69.50;;;;;;7903570;28;20287;-52
2022/03/29 05:18:39;;;;;;;15.25;5.13;;;19.20;69.20;;;;;;7902717;28;20176;-53
2022/03/29 05:22:25;;;;;;;12.52;4.50;;;19.20;69.10;;;;;;7920655;28;20271;-54
2022/03/29 05:26:11;;;;;;;8.40;4.65;;;19.20;69.00;;;;;;7935011;28;20292;-51
2022/03/29 05:29:56;;;;;;;25.02;5.47;;;19.20;68.90;;;;;;7930684;28;20176;-52
2022/03/29 05:33:42;;;;;;;13.50;5.22;;;19.20;68.90;;;;;;7905687;28;20245;-52
2022/03/29 05:37:28;;;;;;;15.90;5.55;;;19.30;68.70;;;;;;7907039;28;20208;-52
2022/03/29 05:41:15;;;;;;;11.50;4.80;;;19.30;68.90;;;;;;7902744;28;20181;-52
2022/03/29 05:45:01;;;;;;;9.50;4.43;;;19.30;68.50;;;;;;7902703;28;20207;-51
2022/03/29 05:48:52;;;;;;;19.67;6.03;;;19.30;68.70;;;;;;7903006;28;20182;-53
2022/03/29 05:52:38;;;;;;;36.25;6.18;;;19.40;68.50;;;;;;7902463;28;20208;-51
2022/03/29 05:56:24;;;;;;;26.75;5.82;;;19.40;68.80;;;;;;7902577;28;20207;-52
2022/03/29 06:00:10;;;;;;;28.60;7.28;;;19.40;68.30;;;;;;7914216;28;20270;-51
2022/03/29 06:03:56;;;;;;;29.02;7.15;;;19.40;68.20;;;;;;7915115;28;20213;-51
2022/03/29 06:07:41;;;;;;;21.45;7.63;;;19.40;68.00;;;;;;7932408;28;20207;-51
2022/03/29 06:11:27;;;;;;;124.05;13.48;;;19.40;67.80;;;;;;7933227;28;20178;-52
2022/03/29 06:15:15;;;;;;;51.58;8.13;;;19.50;67.90;;;;;;7917375;28;20601;-53
2022/03/29 06:19:00;;;;;;;31.58;7.85;;;19.50;67.90;;;;;;7913915;28;20192;-52
2022/03/29 06:22:46;;;;;;;19.92;5.75;;;19.60;68.00;;;;;;7901011;28;20216;-51
2022/03/29 06:26:31;;;;;;;18.05;4.53;;;19.60;69.00;;;;;;7901729;28;20853;-52
2022/03/29 06:30:17;;;;;;;15.00;6.20;;;19.70;69.70;;;;;;7900224;28;20169;-53
2022/03/29 06:34:03;;;;;;;27.80;5.00;;;19.80;69.70;;;;;;7901468;28;20228;-49
2022/03/29 06:37:50;;;;;;;25.05;5.53;;;19.90;70.00;;;;;;7932892;28;20262;-52
2022/03/29 06:41:35;;;;;;;36.42;5.47;;;20.00;70.20;;;;;;7932595;28;20200;-52
2022/03/29 06:45:21;;;;;;;20.52;4.80;;;20.10;70.50;;;;;;7929757;28;20204;-55
2022/03/29 06:49:07;;;;;;;20.75;4.72;;;20.20;70.20;;;;;;7931292;28;20183;-55
2022/03/29 06:52:52;;;;;;;19.75;4.20;;;20.20;70.00;;;;;;7900643;28;20215;-52
2022/03/29 06:56:38;;;;;;;26.95;5.28;;;20.20;69.90;;;;;;7900920;28;20204;-54
2022/03/29 07:00:25;;;;;;;17.88;6.65;;;20.30;69.80;;;;;;7900306;28;20173;-53
2022/03/29 07:04:10;;;;;;;25.58;5.55;;;20.30;69.30;;;;;;7903907;28;20284;-53
2022/03/29 07:07:56;;;;;;;17.92;5.03;;;20.30;70.00;;;;;;7900897;28;20212;-55
2022/03/29 07:11:41;;;;;;;20.75;5.35;;;20.40;70.60;;;;;;7900088;28;20177;-52
2022/03/29 07:15:28;;;;;;;15.93;5.10;;;20.40;70.90;;;;;;7900458;28;20203;-53
2022/03/29 07:19:13;;;;;;;15.15;5.35;;;20.50;71.10;;;;;;7902628;28;20180;-52
2022/03/29 07:22:59;;;;;;;22.70;5.65;;;20.50;71.10;;;;;;7931280;28;20207;-53
2022/03/29 07:26:45;;;;;;;16.80;5.53;;;20.50;71.20;;;;;;7931907;28;20562;-53
2022/03/29 07:30:33;;;;;;;21.17;6.45;;;20.50;71.50;;;;;;7931149;28;20540;-52
2022/03/29 07:34:19;;;;;;;24.02;5.72;;;20.50;71.10;;;;;;7928017;28;20213;-51
2022/03/29 07:38:08;;;;;;;18.23;5.78;;;20.50;71.30;;;;;;7899695;28;20176;-53
2022/03/29 07:41:54;;;;;;;12.25;5.85;;;20.60;71.40;;;;;;7899362;28;20184;-52
2022/03/29 07:45:40;;;;;;;17.02;5.97;;;20.60;71.40;;;;;;7899368;28;20236;-50
2022/03/29 07:49:29;;;;;;;15.02;6.63;;;20.60;71.40;;;;;;7904369;28;20192;-54
2022/03/29 07:53:14;;;;;;;12.38;6.35;;;20.60;71.40;;;;;;7930965;28;20188;-52
2022/03/29 07:57:01;;;;;;;15.57;5.82;;;20.60;71.40;;;;;;7931393;28;20264;-51
2022/03/29 08:00:50;;;;;;;9.88;5.00;;;20.70;71.40;;;;;;7930565;28;20184;-51
2022/03/29 08:04:35;;;;;;;17.15;5.97;;;20.70;71.30;;;;;;7924386;28;20205;-52
2022/03/29 08:08:21;;;;;;;13.82;5.70;;;20.90;71.30;;;;;;7899329;28;20180;-51
2022/03/29 08:12:07;;;;;;;14.43;5.57;;;21.00;71.10;;;;;;7898813;28;20169;-53
2022/03/29 08:15:53;;;;;;;11.38;5.80;;;21.10;71.00;;;;;;7898995;28;20231;-52
2022/03/29 08:19:39;;;;;;;17.00;5.50;;;21.30;70.90;;;;;;7906238;28;20184;-52
2022/03/29 08:23:26;;;;;;;10.52;5.70;;;21.50;70.90;;;;;;7930935;28;20192;-54
2022/03/29 08:27:12;;;;;;;24.58;6.40;;;21.50;70.70;;;;;;7930479;28;20231;-54
2022/03/29 08:30:57;;;;;;;15.77;5.75;;;21.60;70.70;;;;;;7930390;28;20164;-54
2022/03/29 08:34:43;;;;;;;11.43;5.13;;;21.60;70.70;;;;;;7917567;28;20205;-53
2022/03/29 08:38:29;;;;;;;15.30;5.72;;;21.80;70.70;;;;;;7899014;28;20188;-52
2022/03/29 08:42:16;;;;;;;12.02;5.15;;;21.80;70.50;;;;;;7898847;28;20202;-52
2022/03/29 08:46:02;;;;;;;15.88;5.40;;;21.90;70.50;;;;;;7895127;28;20223;-53
2022/03/29 08:49:49;;;;;;;18.58;5.70;;;21.90;70.60;;;;;;7902296;28;20645;-51
2022/03/29 08:53:35;;;;;;;13.18;5.45;;;21.90;70.70;;;;;;7903192;28;20810;-52
2022/03/29 08:57:21;;;;;;;11.27;5.13;;;21.90;70.70;;;;;;7904489;28;20631;-52
2022/03/29 09:01:06;;;;;;;9.63;5.55;;;21.90;70.80;;;;;;7901252;28;20577;-52
2022/03/29 09:05:12;;;;;;;9.80;4.93;;;21.90;71.00;;;;;;7903796;28;20669;-53
2022/03/29 09:08:58;;;;;;;10.88;5.35;;;21.90;71.20;;;;;;7904055;28;20650;-54
2022/03/29 09:12:44;;;;;;;12.13;5.13;;;21.90;71.20;;;;;;7903346;28;20612;-52
2022/03/29 09:16:34;;;;;;;14.77;7.57;;;21.90;71.30;;;;;;7903712;28;20184;-53
2022/03/29 09:20:24;;;;;;;15.27;8.52;;;21.80;71.30;;;;;;7917373;28;20695;-56
2022/03/29 09:24:11;;;;;;;19.95;9.48;;;21.60;69.10;;;;;;7935198;28;20195;-54
2022/03/29 09:28:00;;;;;;;19.52;9.73;;;21.40;70.10;;;;;;7935028;28;20299;-53
2022/03/29 09:31:47;;;;;;;16.77;8.18;;;21.40;70.40;;;;;;7927567;28;20192;-53
2022/03/29 09:35:36;;;;;;;14.93;7.50;;;21.50;70.70;;;;;;7919400;28;20196;-54
2022/03/29 09:39:39;;;;;;;12.20;6.90;;;21.60;71.00;;;;;;7907056;28;20187;-53
2022/03/29 09:43:26;;;;;;;19.42;6.72;;;21.70;71.00;;;;;;7902777;28;20189;-53
2022/03/29 09:47:20;;;;;;;20.17;6.95;;;21.80;71.10;;;;;;7902844;28;20291;-54
2022/03/29 09:51:08;;;;;;;13.43;7.75;;;21.90;71.00;;;;;;7923481;28;20646;-53
2022/03/29 09:55:13;;;;;;;21.38;8.10;;;22.00;71.10;;;;;;7934386;28;20216;-54
2022/03/29 09:59:10;;;;;;;13.77;8.32;;;22.10;71.00;;;;;;7934378;28;20259;-55
2022/03/29 10:02:55;;;;;;;365.52;167.75;;;22.20;70.90;;;;;;7933535;28;20561;-53
2022/03/29 10:06:42;;;;;;;404.60;201.77;;;22.30;71.00;;;;;;7907414;28;20295;-52
2022/03/29 10:10:27;;;;;;;377.08;186.13;;;22.40;70.80;;;;;;7915357;28;20290;-55
2022/03/29 10:14:15;;;;;;;338.13;169.20;;;22.50;70.60;;;;;;7933832;28;20233;-53
2022/03/29 10:18:01;;;;;;;316.15;164.50;;;22.60;70.70;;;;;;7933672;28;20198;-53
2022/03/29 10:21:47;;;;;;;299.58;155.48;;;22.70;71.00;;;;;;7905432;28;20199;-53
2022/03/29 10:25:33;;;;;;;286.63;145.73;;;22.80;71.00;;;;;;7907251;28;20215;-52
2022/03/29 10:29:20;;;;;;;264.55;139.60;;;22.80;71.10;;;;;;7932304;28;20172;-53
2022/03/29 10:33:25;;;;;;;256.85;132.88;;;22.90;71.10;;;;;;7932581;28;20580;-53
2022/03/29 10:37:14;;;;;;;260.33;128.63;;;22.90;71.10;;;;;;7901847;28;20654;-52
2022/03/29 10:40:59;;;;;;;226.90;122.38;;;23.00;71.10;;;;;;7900939;28;20176;-53
2022/03/29 10:45:06;;;;;;;222.07;118.40;;;23.00;71.20;;;;;;7900693;28;20192;-54
2022/03/29 10:49:23;;;;;;;213.05;113.20;;;23.00;71.20;;;;;;7900744;28;20172;-53
2022/03/29 10:53:29;;;;;;;215.25;109.90;;;23.00;71.40;;;;;;7900621;28;20201;-52
2022/03/29 10:57:26;;;;;;;197.48;104.65;;;22.90;71.40;;;;;;7892822;28;20188;-53
2022/03/29 11:01:12;;;;;;;180.30;99.10;;;22.90;72.50;;;;;;7897431;28;20603;-54
2022/03/29 11:05:09;;;;;;;184.52;96.78;;;22.90;71.70;;;;;;7913311;28;20207;-54
2022/03/29 11:09:15;;;;;;;171.55;93.00;;;22.90;71.90;;;;;;7931813;28;20692;-51
2022/03/29 11:13:01;;;;;;;166.27;89.78;;;22.90;72.00;;;;;;7931540;28;20617;-51
2022/03/29 11:16:46;;;;;;;160.13;86.78;;;22.90;72.00;;;;;;7930072;28;20195;-52
2022/03/29 11:20:39;;;;;;;153.55;82.05;;;22.80;72.20;;;;;;7913323;28;20242;-52
2022/03/29 11:24:26;;;;;;;153.85;80.40;;;22.80;72.30;;;;;;7899770;28;20716;-52
2022/03/29 11:28:14;;;;;;;144.35;76.85;;;22.80;72.50;;;;;;7900001;28;20204;-55
2022/03/29 11:32:01;;;;;;;130.93;74.97;;;22.80;72.80;;;;;;7899794;28;20224;-54
2022/03/29 11:35:52;;;;;;;92.45;50.95;;;22.60;69.00;;;;;;7920153;28;20222;-55
2022/03/29 11:39:38;;;;;;;83.00;47.40;;;22.40;69.90;;;;;;7931873;28;20249;-51
2022/03/29 11:43:23;;;;;;;80.82;44.63;;;22.40;70.20;;;;;;7931237;28;20196;-53
2022/03/29 11:47:09;;;;;;;78.82;44.17;;;22.40;70.70;;;;;;7930986;28;20211;-53
2022/03/29 11:51:00;;;;;;;76.90;43.00;;;22.40;71.00;;;;;;7908871;28;20222;-53
2022/03/29 11:54:53;;;;;;;77.45;41.30;;;22.50;71.20;;;;;;7899579;28;20192;-53
2022/03/29 11:58:39;;;;;;;69.03;38.28;;;22.50;71.40;;;;;;7899156;28;20181;-52
2022/03/29 12:02:26;;;;;;;70.63;39.17;;;22.50;71.50;;;;;;7898941;28;20176;-55
2022/03/29 12:06:17;;;;;;;65.00;36.92;;;22.50;71.80;;;;;;7923334;28;20216;-54
2022/03/29 12:10:02;;;;;;;67.40;35.20;;;22.50;72.10;;;;;;7930567;28;20161;-53
2022/03/29 12:14:00;;;;;;;62.50;34.75;;;22.40;72.10;;;;;;7930530;28;20329;-52
2022/03/29 12:22:08;;;;;;;57.83;32.47;;;22.40;72.40;;;;;;7899144;28;20646;-53
2022/03/29 12:25:55;;;;;;;55.45;31.50;;;22.40;72.50;;;;;;7899199;28;20319;-54
2022/03/29 12:29:52;;;;;;;54.45;28.88;;;22.40;72.70;;;;;;7905118;28;20870;-55
2022/03/29 12:33:39;;;;;;;50.33;29.38;;;22.30;72.70;;;;;;7908665;28;20200;-53
2022/03/29 12:37:26;;;;;;;46.67;28.58;;;22.30;72.90;;;;;;7936182;28;20180;-53
2022/03/29 12:41:14;;;;;;;49.20;28.30;;;22.30;72.90;;;;;;7936089;28;20172;-54
2022/03/29 12:45:00;;;;;;;45.72;26.92;;;22.20;72.80;;;;;;7936159;28;20190;-53
2022/03/29 12:48:48;;;;;;;47.55;27.05;;;22.20;73.00;;;;;;7931200;28;20819;-52
2022/03/29 12:52:41;;;;;;;50.08;26.23;;;22.20;73.10;;;;;;7904430;28;20180;-52
2022/03/29 12:56:32;;;;;;;45.63;25.40;;;22.20;73.10;;;;;;7904721;28;20259;-54
2022/03/29 13:00:19;;;;;;;45.22;24.85;;;22.10;73.10;;;;;;7903825;28;20173;-52
2022/03/29 13:04:11;;;;;;;48.17;23.85;;;22.10;73.00;;;;;;7909284;28;20203;-53
2022/03/29 13:07:57;;;;;;;39.88;23.33;;;22.00;73.90;;;;;;7935775;28;20259;-53
2022/03/29 13:11:43;;;;;;;37.65;21.40;;;22.00;73.00;;;;;;7933900;28;20176;-53
2022/03/29 13:15:42;;;;;;;43.00;22.38;;;22.00;73.20;;;;;;7919638;28;20257;-53
2022/03/29 13:19:28;;;;;;;36.42;21.40;;;21.90;73.20;;;;;;7935753;27;20171;-53
2022/03/29 13:23:32;;;;;;;37.22;20.50;;;21.90;73.10;;;;;;7936027;27;20689;-55
2022/03/29 13:27:17;;;;;;;37.97;20.48;;;21.90;73.20;;;;;;7915179;28;20793;-53
2022/03/29 13:31:07;;;;;;;32.35;20.00;;;21.90;73.10;;;;;;7904910;28;20195;-56
2022/03/29 13:34:53;;;;;;;34.38;18.25;;;22.00;73.20;;;;;;7916312;28;20200;-55
2022/03/29 13:38:40;;;;;;;38.15;18.02;;;22.00;73.10;;;;;;7902432;28;20200;-53
2022/03/29 13:42:25;;;;;;;32.22;18.27;;;22.00;73.10;;;;;;7903650;28;20199;-54
2022/03/29 13:46:12;;;;;;;33.03;16.83;;;22.10;73.10;;;;;;7903513;28;20250;-53
2022/03/29 13:49:58;;;;;;;31.25;17.65;;;22.10;73.00;;;;;;7926343;28;20677;-53
2022/03/29 13:53:44;;;;;;;28.92;16.38;;;22.20;73.00;;;;;;7934872;28;20602;-53
2022/03/29 13:57:30;;;;;;;33.55;16.80;;;22.10;73.00;;;;;;7935169;28;20184;-55
2022/03/29 14:01:16;;;;;;;25.52;15.15;;;22.20;73.10;;;;;;7935102;28;20334;-55
2022/03/29 14:05:01;;;;;;;28.00;15.82;;;22.20;73.10;;;;;;7934455;28;20283;-53
2022/03/29 14:08:48;;;;;;;26.08;14.32;;;22.20;73.10;;;;;;7923164;28;20176;-53
2022/03/29 14:12:33;;;;;;;28.15;14.18;;;22.20;73.10;;;;;;7902851;28;20188;-55
2022/03/29 14:16:20;;;;;;;29.63;14.52;;;22.30;73.10;;;;;;7903046;28;20676;-54
2022/03/29 14:20:06;;;;;;;26.55;13.77;;;22.30;73.20;;;;;;7903119;28;20517;-52
2022/03/29 14:23:52;;;;;;;27.60;14.73;;;22.30;73.20;;;;;;7902828;28;20287;-53
2022/03/29 14:27:38;;;;;;;31.27;14.05;;;22.30;73.30;;;;;;7900676;28;20246;-49
2022/03/29 14:31:23;;;;;;;21.55;13.05;;;22.30;73.20;;;;;;7899399;28;20169;-49
2022/03/29 14:35:09;;;;;;;22.08;14.00;;;22.20;73.10;;;;;;7899419;28;20208;-53
2022/03/29 14:38:56;;;;;;;31.55;13.60;;;22.20;73.10;;;;;;7899275;28;20185;-54
2022/03/29 14:42:41;;;;;;;21.17;11.43;;;22.20;73.10;;;;;;7901593;28;20259;-54
2022/03/29 14:46:27;;;;;;;23.77;12.35;;;22.20;73.30;;;;;;7902028;28;20215;-52
2022/03/29 14:50:15;;;;;;;22.80;11.80;;;22.20;73.30;;;;;;7900829;28;20184;-49
2022/03/29 14:54:01;;;;;;;22.77;11.82;;;22.10;73.50;;;;;;7901868;28;20565;-49
2022/03/29 14:57:47;;;;;;;28.13;11.70;;;22.10;73.40;;;;;;7901722;28;20173;-51
2022/03/29 15:01:34;;;;;;;31.67;12.60;;;22.00;73.50;;;;;;7900531;28;20216;-49
2022/03/29 15:05:19;;;;;;;24.95;12.63;;;22.00;73.40;;;;;;7901300;28;20208;-52
2022/03/29 15:09:05;;;;;;;29.90;13.65;;;21.90;73.30;;;;;;7901126;28;20706;-49
2022/03/29 15:12:50;;;;;;;28.05;14.13;;;22.00;73.20;;;;;;7904678;28;20241;-51
2022/03/29 15:16:36;;;;;;;29.50;14.25;;;21.60;70.30;;;;;;7901037;28;20188;-52
2022/03/29 15:20:22;;;;;;;23.17;13.25;;;21.40;70.60;;;;;;7914931;28;20684;-51
2022/03/29 15:24:08;;;;;;;24.13;13.25;;;21.40;70.20;;;;;;7927548;28;20206;-49
2022/03/29 15:27:53;;;;;;;20.30;11.43;;;21.40;70.60;;;;;;7900914;28;20212;-49
2022/03/29 15:31:39;;;;;;;17.35;10.52;;;21.40;70.90;;;;;;7900635;28;20172;-50
2022/03/29 15:35:24;;;;;;;22.20;10.48;;;21.40;71.10;;;;;;7900883;28;20227;-53
2022/03/29 15:39:10;;;;;;;19.00;9.95;;;21.50;71.10;;;;;;7900543;28;20188;-51
2022/03/29 15:42:55;;;;;;;20.65;9.82;;;21.60;71.20;;;;;;7900531;28;20211;-54
2022/03/29 15:46:41;;;;;;;23.88;9.50;;;21.60;71.10;;;;;;7900544;28;20602;-53
2022/03/29 15:50:26;;;;;;;17.48;9.77;;;21.70;71.20;;;;;;7900482;28;20241;-49
2022/03/29 15:54:12;;;;;;;19.05;8.93;;;21.70;71.10;;;;;;7900482;28;20193;-49
2022/03/29 15:57:57;;;;;;;14.60;9.38;;;21.80;71.10;;;;;;7900387;28;20177;-50
2022/03/29 16:01:43;;;;;;;15.63;9.70;;;21.90;71.00;;;;;;7903766;28;20176;-49
2022/03/29 16:05:28;;;;;;;20.92;9.00;;;22.00;71.00;;;;;;7906658;28;20220;-49
2022/03/29 16:09:17;;;;;;;20.90;8.73;;;22.00;70.80;;;;;;7906304;28;20530;-50
2022/03/29 16:13:03;;;;;;;14.57;8.65;;;22.10;70.90;;;;;;7906780;28;20271;-49
2022/03/29 16:16:49;;;;;;;23.20;9.18;;;22.30;70.80;;;;;;7906800;28;20192;-49
2022/03/29 16:20:35;;;;;;;22.85;8.40;;;22.30;70.70;;;;;;7906616;28;20181;-49
2022/03/29 16:24:21;;;;;;;31.63;9.20;;;22.40;70.60;;;;;;7906386;28;20685;-49
2022/03/29 16:28:06;;;;;;;23.40;9.13;;;22.50;70.70;;;;;;7906224;28;20250;-50
2022/03/29 16:31:52;;;;;;;29.05;8.50;;;22.50;70.60;;;;;;7909168;28;20302;-53
2022/03/29 16:35:39;;;;;;;24.52;8.63;;;22.60;70.70;;;;;;7906159;28;20193;-52
2022/03/29 16:39:25;;;;;;;35.05;9.38;;;22.60;70.90;;;;;;7905144;28;20212;-54
2022/03/29 16:43:11;;;;;;;31.90;8.80;;;22.60;72.10;;;;;;7905854;28;20200;-53
2022/03/29 16:46:56;;;;;;;33.97;9.32;;;22.60;72.70;;;;;;7919816;28;20211;-53
2022/03/29 16:50:42;;;;;;;23.17;7.97;;;22.60;72.80;;;;;;7908377;28;20192;-49
2022/03/29 16:54:28;;;;;;;36.47;8.80;;;22.50;72.70;;;;;;7916427;28;20207;-49
2022/03/29 16:58:13;;;;;;;28.63;9.00;;;22.50;72.80;;;;;;7905388;28;20260;-51
2022/03/29 17:01:58;;;;;;;29.55;10.13;;;22.50;72.90;;;;;;7905016;28;20195;-52
2022/03/29 17:05:44;;;;;;;22.75;9.15;;;22.50;72.90;;;;;;7905025;28;20217;-49
2022/03/29 17:09:29;;;;;;;23.65;8.07;;;22.50;72.90;;;;;;7904821;28;20598;-52
2022/03/29 17:13:15;;;;;;;22.23;8.50;;;22.50;73.00;;;;;;7903986;28;20726;-51
2022/03/29 17:17:01;;;;;;;26.77;8.60;;;22.50;73.00;;;;;;7904869;28;20234;-51
2022/03/29 17:20:46;;;;;;;19.73;8.52;;;22.40;73.10;;;;;;7904432;28;20181;-50
2022/03/29 17:24:32;;;;;;;32.92;8.35;;;22.40;73.10;;;;;;7904461;28;20199;-49
2022/03/29 17:28:17;;;;;;;24.55;8.85;;;22.40;73.20;;;;;;7904340;28;20567;-52
2022/03/29 17:32:03;;;;;;;18.02;9.00;;;22.30;73.10;;;;;;7904096;28;20211;-51
2022/03/29 17:35:49;;;;;;;21.17;9.73;;;22.30;73.20;;;;;;7904243;28;20892;-51
2022/03/29 17:39:35;;;;;;;15.45;8.68;;;22.20;73.10;;;;;;7903828;28;20226;-50
2022/03/29 17:43:20;;;;;;;21.35;9.43;;;22.20;73.20;;;;;;7903973;28;20200;-52
2022/03/29 17:47:08;;;;;;;21.17;8.75;;;22.20;73.10;;;;;;7903828;28;20208;-55
2022/03/29 17:50:53;;;;;;;16.45;8.60;;;22.10;73.10;;;;;;7903473;28;20184;-50
2022/03/29 17:54:39;;;;;;;16.80;9.52;;;22.10;73.10;;;;;;7903811;28;20326;-49
2022/03/29 17:58:25;;;;;;;18.48;9.30;;;22.10;73.20;;;;;;7903564;28;20537;-49
2022/03/29 18:02:12;;;;;;;18.27;9.52;;;22.10;73.20;;;;;;7903060;28;20666;-51
2022/03/29 18:05:57;;;;;;;16.95;9.55;;;22.00;73.20;;;;;;7904976;28;20215;-49
2022/03/29 18:09:43;;;;;;;28.20;10.55;;;22.00;73.20;;;;;;7934729;28;20180;-50
2022/03/29 18:13:28;;;;;;;27.60;11.18;;;21.90;73.20;;;;;;7935091;28;20192;-55
2022/03/29 18:17:14;;;;;;;21.42;10.75;;;21.90;73.10;;;;;;7935456;28;20176;-49
2022/03/29 18:20:59;;;;;;;30.50;11.88;;;21.80;73.20;;;;;;7934893;28;20180;-49
2022/03/29 18:24:45;;;;;;;28.23;11.77;;;21.80;73.20;;;;;;7934926;28;20196;-49
2022/03/29 18:28:30;;;;;;;23.67;10.40;;;21.70;73.10;;;;;;7934758;28;20665;-48
2022/03/29 18:32:16;;;;;;;27.27;11.32;;;21.70;73.20;;;;;;7934313;28;20784;-49
2022/03/29 18:36:05;;;;;;;23.25;12.25;;;21.70;73.20;;;;;;7934385;28;20206;-49
2022/03/29 18:39:55;;;;;;;24.08;11.88;;;21.60;74.10;;;;;;7933843;27;20212;-50
2022/03/29 18:43:41;;;;;;;27.88;13.13;;;21.60;73.30;;;;;;7933484;28;20206;-49
2022/03/29 18:47:33;;;;;;;57.58;13.60;;;21.50;73.90;;;;;;7902725;28;20208;-49
2022/03/29 18:51:18;;;;;;;37.60;12.43;;;21.50;73.20;;;;;;7901836;28;20196;-49
2022/03/29 18:55:05;;;;;;;45.65;14.65;;;21.50;73.40;;;;;;7901933;28;20192;-52
2022/03/29 18:58:53;;;;;;;41.15;15.77;;;21.30;73.20;;;;;;7902004;28;20169;-48
2022/03/29 19:02:38;;;;;;;43.38;15.65;;;21.30;72.80;;;;;;7901391;28;20233;-49
2022/03/29 19:06:24;;;;;;;34.00;15.07;;;21.30;73.00;;;;;;7901349;28;20208;-51
2022/03/29 19:10:13;;;;;;;47.25;16.35;;;21.40;73.00;;;;;;7903657;28;20313;-49
2022/03/29 19:13:58;;;;;;;35.90;15.43;;;21.40;73.00;;;;;;7932860;28;20531;-49
2022/03/29 19:17:44;;;;;;;37.42;15.45;;;21.50;72.60;;;;;;7923006;28;20188;-52
2022/03/29 19:21:30;;;;;;;30.15;15.05;;;21.50;72.60;;;;;;7900623;28;20238;-49
2022/03/29 19:25:15;;;;;;;30.77;14.07;;;21.60;72.50;;;;;;7900795;28;20227;-54
2022/03/29 19:29:02;;;;;;;28.33;14.10;;;21.70;72.30;;;;;;7900960;28;20204;-50
2022/03/29 19:32:49;;;;;;;30.17;14.77;;;21.70;72.10;;;;;;7900887;28;20191;-51